createdAt,value
2022-11-22T00:01:14.800Z,25.40
2022-11-22T00:04:18.473Z,21.67
2022-11-22T00:07:23.445Z,21.03
2022-11-22T00:10:27.159Z,22.37
2022-11-22T00:13:30.753Z,24.10
2022-11-22T00:16:35.102Z,19.00
2022-11-22T00:19:39.500Z,20.70
2022-11-22T00:22:45.221Z,21.37
2022-11-22T00:25:49.383Z,23.40
2022-11-22T00:28:53.141Z,22.23
2022-11-22T00:31:56.741Z,26.33
2022-11-22T00:35:00.358Z,23.20
2022-11-22T00:38:05.349Z,24.53
2022-11-22T00:41:09.014Z,27.07
2022-11-22T00:44:12.614Z,22.57
2022-11-22T00:47:16.186Z,24.30
2022-11-22T00:50:19.976Z,31.13
2022-11-22T00:53:25.334Z,27.50
2022-11-22T00:56:28.930Z,25.87
2022-11-22T00:59:32.618Z,25.13
2022-11-22T01:02:36.416Z,36.13
2022-11-22T01:05:40.407Z,29.50
2022-11-22T01:08:45.423Z,32.03
2022-11-22T01:11:49.759Z,27.13
2022-11-22T01:14:53.375Z,30.53
2022-11-22T01:17:57.160Z,29.13
2022-11-22T01:21:01.137Z,31.07
2022-11-22T01:24:06.635Z,32.73
2022-11-22T01:27:10.282Z,31.40
2022-11-22T01:30:14.815Z,30.83
2022-11-22T01:33:18.711Z,32.30
2022-11-22T01:36:22.309Z,31.13
2022-11-22T01:39:27.657Z,32.33
2022-11-22T01:42:45.586Z,36.40
2022-11-22T01:45:53.606Z,34.50
2022-11-22T01:49:03.693Z,39.07
2022-11-22T01:52:15.494Z,35.93
2022-11-22T01:55:20.940Z,35.93
2022-11-22T01:58:27.136Z,36.87
2022-11-22T02:01:31.537Z,39.13
2022-11-22T02:04:38.233Z,38.30
2022-11-22T02:07:50.767Z,36.20
2022-11-22T02:11:00.626Z,37.07
2022-11-22T02:14:05.765Z,36.87
2022-11-22T02:17:09.509Z,40.33
2022-11-22T02:20:17.068Z,45.37
2022-11-22T02:23:32.735Z,41.37
2022-11-22T02:26:37.828Z,40.53
2022-11-22T02:29:43.304Z,43.80
2022-11-22T02:32:47.243Z,48.00
2022-11-22T02:35:51.250Z,53.70
2022-11-22T02:38:55.570Z,44.80
2022-11-22T02:42:00.828Z,44.53
2022-11-22T02:45:05.012Z,49.03
2022-11-22T02:48:11.813Z,48.57
2022-11-22T02:51:19.969Z,49.27
2022-11-22T02:54:23.926Z,47.27
2022-11-22T02:57:28.894Z,49.17
2022-11-22T03:00:32.744Z,53.73
2022-11-22T03:03:36.602Z,48.50
2022-11-22T03:06:40.250Z,46.00
2022-11-22T03:09:44.017Z,51.00
2022-11-22T03:12:49.108Z,46.90
2022-11-22T03:15:52.702Z,52.50
2022-11-22T03:18:56.486Z,52.73
2022-11-22T03:22:00.071Z,55.90
2022-11-22T03:25:03.728Z,56.87
2022-11-22T03:28:08.888Z,55.60
2022-11-22T03:31:12.498Z,56.07
2022-11-22T03:34:16.422Z,53.20
2022-11-22T03:37:19.934Z,52.57
2022-11-22T03:40:23.525Z,48.77
2022-11-22T03:43:28.592Z,45.90
2022-11-22T03:46:32.294Z,55.37
2022-11-22T03:49:35.839Z,51.23
2022-11-22T03:52:39.419Z,47.47
2022-11-22T03:55:43.184Z,49.90
2022-11-22T03:58:48.142Z,51.80
2022-11-22T04:01:52.290Z,54.93
2022-11-22T04:04:55.939Z,53.63
2022-11-22T04:07:59.733Z,58.97
2022-11-22T04:11:03.367Z,53.10
2022-11-22T04:14:25.764Z,58.07
2022-11-22T04:17:45.344Z,59.17
2022-11-22T04:21:08.575Z,51.90
2022-11-22T04:24:30.882Z,55.07
2022-11-22T04:27:34.488Z,53.37
2022-11-22T04:30:57.129Z,50.37
2022-11-22T04:34:00.752Z,50.00
2022-11-22T04:37:06.084Z,54.77
2022-11-22T04:40:11.638Z,46.50
2022-11-22T04:43:39.535Z,49.60
2022-11-22T04:46:44.521Z,53.57
2022-11-22T04:49:48.103Z,46.07
2022-11-22T04:52:55.655Z,48.40
2022-11-22T04:55:59.307Z,50.13
2022-11-22T04:59:04.779Z,45.40
2022-11-22T05:02:10.094Z,48.17
2022-11-22T05:05:13.619Z,52.43
2022-11-22T05:08:17.185Z,59.07
2022-11-22T05:11:20.806Z,50.93
2022-11-22T05:14:24.376Z,50.00
2022-11-22T05:17:29.375Z,48.83
2022-11-22T05:20:32.929Z,46.30
2022-11-22T05:23:54.150Z,40.27
2022-11-22T05:26:57.692Z,46.90
2022-11-22T05:30:01.381Z,42.13
2022-11-22T05:33:06.432Z,46.63
2022-11-22T05:36:10.964Z,48.47
2022-11-22T05:39:14.553Z,45.33
2022-11-22T05:42:18.127Z,49.73
2022-11-22T05:45:29.493Z,49.40
2022-11-22T05:48:34.692Z,47.57
2022-11-22T05:51:38.247Z,40.73
2022-11-22T05:54:41.829Z,47.23
2022-11-22T05:57:45.455Z,46.43
2022-11-22T06:00:49.106Z,39.13
2022-11-22T06:03:55.201Z,43.50
2022-11-22T06:06:58.787Z,47.77
2022-11-22T06:10:02.339Z,42.30
2022-11-22T06:13:06.034Z,44.47
2022-11-22T06:16:10.937Z,43.33
2022-11-22T06:19:15.964Z,52.87
2022-11-22T06:22:19.545Z,58.83
2022-11-22T06:25:23.117Z,44.60
2022-11-22T06:28:27.007Z,50.37
2022-11-22T06:31:30.910Z,55.87
2022-11-22T06:34:35.876Z,65.53
2022-11-22T06:37:39.479Z,48.07
2022-11-22T06:40:43.199Z,43.37
2022-11-22T06:43:49.791Z,48.97
2022-11-22T06:46:53.519Z,42.37
2022-11-22T06:49:58.491Z,38.60
2022-11-22T06:53:02.078Z,52.53
2022-11-22T06:56:08.512Z,48.33
2022-11-22T06:59:12.612Z,46.37
2022-11-22T07:02:16.218Z,47.67
2022-11-22T07:05:25.961Z,39.43
2022-11-22T07:08:30.222Z,49.50
2022-11-22T07:11:34.756Z,43.63
2022-11-22T07:14:38.500Z,50.90
2022-11-22T07:17:42.369Z,46.47
2022-11-22T07:20:47.449Z,45.00
2022-11-22T07:23:54.418Z,48.83
2022-11-22T07:26:59.324Z,47.13
2022-11-22T07:30:04.153Z,44.90
2022-11-22T07:33:08.014Z,49.03
2022-11-22T07:36:16.189Z,45.83
2022-11-22T07:39:19.803Z,47.30
2022-11-22T07:42:26.205Z,51.80
2022-11-22T07:45:30.181Z,54.13
2022-11-22T07:48:33.872Z,46.60
2022-11-22T07:51:38.885Z,47.27
2022-11-22T07:54:42.551Z,48.00
2022-11-22T07:57:46.170Z,53.13
2022-11-22T08:00:49.943Z,51.53
2022-11-22T08:03:53.850Z,46.87
2022-11-22T08:06:58.813Z,58.50
2022-11-22T08:10:02.390Z,51.37
2022-11-22T08:13:06.276Z,51.00
2022-11-22T08:16:13.020Z,57.10
2022-11-22T08:19:18.622Z,51.67
2022-11-22T08:22:23.558Z,51.77
2022-11-22T08:25:27.132Z,56.43
2022-11-22T08:28:30.979Z,53.40
2022-11-22T08:31:34.775Z,54.50
2022-11-22T08:34:40.748Z,61.53
2022-11-22T08:37:50.770Z,51.93
2022-11-22T08:40:54.465Z,51.20
2022-11-22T08:43:58.031Z,47.60
2022-11-22T08:47:01.661Z,49.40
2022-11-22T08:50:06.511Z,49.37
2022-11-22T08:53:11.439Z,53.07
2022-11-22T08:56:17.374Z,47.93
2022-11-22T08:59:20.954Z,47.50
2022-11-22T09:02:24.596Z,56.93
2022-11-22T09:05:28.246Z,46.10
2022-11-22T09:08:36.491Z,52.33
2022-11-22T09:11:42.192Z,46.23
2022-11-22T09:14:45.882Z,47.37
2022-11-22T09:17:49.722Z,55.37
2022-11-22T09:21:00.262Z,47.03
2022-11-22T09:24:06.958Z,44.60
2022-11-22T09:27:10.571Z,47.63
2022-11-22T09:30:14.860Z,50.37
2022-11-22T09:33:18.692Z,46.43
2022-11-22T09:36:26.451Z,50.17
2022-11-22T09:39:31.677Z,50.87
2022-11-22T09:43:18.930Z,52.10
2022-11-22T09:46:42.374Z,50.83
2022-11-22T09:49:59.157Z,48.67
2022-11-22T09:53:13.089Z,51.37
2022-11-22T09:56:22.819Z,54.67
2022-11-22T09:59:33.713Z,55.40
2022-11-22T10:02:59.337Z,49.67
2022-11-22T10:06:15.154Z,46.67
2022-11-22T10:09:33.664Z,48.07
2022-11-22T10:12:48.373Z,42.83
2022-11-22T10:16:03.631Z,39.03
2022-11-22T10:19:17.441Z,54.00
2022-11-22T10:22:21.077Z,45.13
2022-11-22T10:25:39.514Z,50.80
2022-11-22T10:28:59.905Z,44.40
2022-11-22T10:32:18.955Z,48.07
2022-11-22T10:35:59.111Z,51.27
2022-11-22T10:39:24.085Z,72.87
2022-11-22T10:42:50.962Z,52.20
2022-11-22T10:46:11.068Z,47.30
2022-11-22T10:49:29.141Z,40.47
2022-11-22T10:52:48.032Z,37.73
2022-11-22T10:56:01.778Z,37.33
2022-11-22T10:59:37.590Z,33.17
2022-11-22T11:03:13.161Z,37.37
2022-11-22T11:06:43.765Z,38.27
2022-11-22T11:10:10.727Z,33.10
2022-11-22T11:13:24.619Z,38.00
2022-11-22T11:16:35.029Z,33.43
2022-11-22T11:19:44.230Z,31.63
2022-11-22T11:26:28.233Z,35.23
2022-11-22T11:29:43.883Z,29.10
2022-11-22T11:32:54.560Z,25.70
2022-11-22T11:36:07.024Z,25.27
2022-11-22T11:39:22.890Z,28.93
2022-11-22T11:42:30.637Z,28.97
2022-11-22T11:45:34.892Z,26.90
2022-11-22T11:48:41.210Z,26.07
2022-11-22T11:51:49.903Z,28.10
2022-11-22T11:54:59.027Z,25.17
2022-11-22T11:58:05.041Z,26.57
2022-11-22T12:01:12.837Z,27.17
2022-11-22T12:04:24.056Z,28.60
2022-11-22T12:07:40.539Z,21.70
2022-11-22T12:10:57.280Z,26.17
2022-11-22T12:14:20.006Z,21.50
2022-11-22T12:17:31.707Z,21.23
2022-11-22T12:20:47.566Z,22.03
2022-11-22T12:24:34.454Z,22.53
2022-11-22T12:27:27.941Z,22.03
2022-11-22T12:30:34.541Z,21.87
2022-11-22T12:33:43.394Z,17.40
2022-11-22T12:36:54.029Z,24.23
2022-11-22T12:40:06.830Z,21.37
2022-11-22T12:43:22.763Z,26.13
2022-11-22T12:46:31.803Z,21.27
2022-11-22T12:49:43.375Z,28.80
2022-11-22T12:52:54.161Z,27.07
2022-11-22T12:56:12.223Z,23.03
2022-11-22T12:59:28.837Z,19.80
2022-11-22T13:02:39.307Z,21.37
2022-11-22T13:05:49.736Z,30.70
2022-11-22T13:09:03.922Z,21.03
2022-11-22T13:12:14.889Z,22.47
2022-11-22T13:15:40.736Z,21.17
2022-11-22T13:18:52.833Z,26.10
2022-11-22T13:22:19.593Z,22.43
2022-11-22T13:25:45.796Z,17.70
2022-11-22T13:28:52.691Z,19.43
2022-11-22T13:32:08.951Z,18.50
2022-11-22T13:35:29.701Z,29.23
2022-11-22T13:38:33.991Z,25.67
2022-11-22T13:41:50.045Z,21.77
2022-11-22T13:45:21.039Z,25.00
2022-11-22T13:49:17.586Z,28.23
2022-11-22T13:52:52.294Z,20.60
2022-11-22T13:55:58.031Z,22.80
2022-11-22T13:59:14.488Z,23.03
2022-11-22T14:02:25.231Z,18.63
2022-11-22T14:05:41.686Z,22.40
2022-11-22T14:08:46.151Z,17.23
2022-11-22T14:12:08.327Z,22.97
2022-11-22T14:15:30.106Z,22.90
2022-11-22T14:18:54.618Z,20.73
2022-11-22T14:22:24.719Z,17.30
2022-11-22T14:25:59.503Z,21.97
2022-11-22T14:29:54.021Z,20.83
2022-11-22T14:33:05.343Z,20.20
2022-11-22T14:36:17.975Z,20.97
2022-11-22T14:40:01.572Z,21.53
2022-11-22T14:43:37.160Z,23.30
2022-11-22T14:46:55.256Z,22.10
2022-11-22T14:49:59.972Z,22.83
2022-11-22T14:53:21.230Z,19.97
2022-11-22T14:56:30.423Z,26.27
2022-11-22T15:00:07.197Z,20.27
2022-11-22T15:03:39.131Z,23.33
2022-11-22T15:09:21.753Z,20.83
2022-11-22T15:11:20.291Z,25.87
2022-11-22T16:00:24.389Z,25.63
2022-11-22T16:03:39.857Z,29.07
2022-11-22T16:06:44.932Z,22.93
2022-11-22T16:09:52.339Z,25.43
2022-11-22T16:12:56.048Z,22.50
2022-11-22T16:16:18.736Z,20.97
2022-11-22T16:19:25.587Z,25.67
2022-11-22T16:22:33.883Z,25.77
2022-11-22T16:25:40.398Z,23.43
2022-11-22T16:28:44.353Z,23.17
2022-11-22T16:31:48.020Z,23.57
2022-11-22T16:35:08.424Z,23.43
2022-11-22T16:38:16.580Z,21.30
2022-11-22T16:41:22.582Z,27.03
2022-11-22T16:44:26.370Z,23.77
2022-11-22T16:47:29.959Z,21.80
2022-11-22T16:50:35.027Z,26.37
2022-11-22T16:53:43.463Z,25.27
2022-11-22T16:56:47.929Z,24.13
2022-11-22T16:59:51.569Z,25.10
2022-11-22T17:02:55.103Z,23.77
2022-11-22T17:06:00.098Z,26.03
2022-11-22T17:09:05.667Z,25.30
2022-11-22T17:12:17.949Z,28.80
2022-11-22T17:15:26.849Z,25.00
2022-11-22T17:18:30.456Z,26.97
2022-11-22T17:21:37.859Z,31.93
2022-11-22T17:24:42.296Z,29.47
2022-11-22T17:27:50.208Z,31.53
2022-11-22T17:30:59.656Z,32.70
2022-11-22T17:34:03.521Z,29.90
2022-11-22T17:37:13.246Z,26.83
2022-11-22T17:40:17.299Z,30.77
2022-11-22T17:43:20.815Z,35.67
2022-11-22T17:46:25.419Z,38.53
2022-11-22T17:49:29.392Z,35.67
2022-11-22T17:52:34.526Z,29.40
2022-11-22T17:56:09.072Z,34.73
2022-11-22T17:59:03.994Z,48.70
2022-11-22T18:02:07.856Z,43.40
2022-11-22T18:05:11.613Z,31.63
2022-11-22T18:08:16.599Z,46.30
2022-11-22T18:11:20.192Z,46.47
2022-11-22T18:14:24.518Z,39.60
2022-11-22T18:17:28.026Z,40.37
2022-11-22T18:20:31.614Z,31.13
2022-11-22T18:23:39.061Z,68.60
2022-11-22T18:26:42.775Z,47.73
2022-11-22T18:29:46.507Z,62.33
2022-11-22T18:32:50.095Z,35.10
2022-11-22T18:36:00.936Z,45.77
2022-11-22T18:39:06.124Z,43.10
2022-11-22T18:42:14.193Z,35.70
2022-11-22T18:45:18.998Z,41.53
2022-11-22T18:48:22.690Z,45.47
2022-11-22T18:51:26.518Z,45.47
2022-11-22T18:54:31.922Z,70.53
2022-11-22T18:57:36.556Z,40.13
2022-11-22T19:00:40.724Z,32.90
2022-11-22T19:03:45.222Z,35.53
2022-11-22T19:06:48.851Z,39.50
2022-11-22T19:09:53.741Z,39.17
2022-11-22T19:12:57.801Z,40.77
2022-11-22T19:16:06.564Z,38.53
2022-11-22T19:19:12.946Z,44.00
2022-11-22T19:22:16.751Z,35.03
2022-11-22T19:25:21.911Z,33.83
2022-11-22T19:28:28.825Z,38.30
2022-11-22T19:31:33.844Z,36.00
2022-11-22T19:34:37.426Z,33.93
2022-11-22T19:37:41.418Z,33.77
2022-11-22T19:40:46.731Z,30.07
2022-11-22T19:43:51.945Z,30.23
2022-11-22T19:46:55.831Z,34.53
2022-11-22T19:49:59.609Z,28.93
2022-11-22T19:53:03.598Z,31.63
2022-11-22T19:56:13.698Z,32.57
2022-11-22T19:59:18.446Z,31.80
2022-11-22T20:02:22.266Z,30.40
2022-11-22T20:05:26.132Z,29.40
2022-11-22T20:08:30.444Z,30.43
2022-11-22T20:11:35.481Z,29.07
2022-11-22T20:14:39.405Z,27.43
2022-11-22T20:17:43.176Z,27.80
2022-11-22T20:20:47.036Z,30.30
2022-11-22T20:23:51.336Z,29.63
2022-11-22T20:26:56.419Z,29.50
2022-11-22T20:30:01.378Z,27.20
2022-11-22T20:33:05.315Z,26.00
2022-11-22T20:36:12.582Z,32.63
2022-11-22T20:39:25.100Z,31.40
2022-11-22T20:42:34.808Z,54.00
2022-11-22T20:45:39.153Z,37.10
2022-11-22T20:49:03.489Z,24.73
2022-11-22T20:52:08.515Z,33.53
2022-11-22T20:55:12.074Z,23.43
2022-11-22T20:58:17.417Z,27.10
2022-11-22T21:01:23.862Z,24.57
2022-11-22T21:04:27.458Z,24.57
2022-11-22T21:07:31.084Z,25.63
2022-11-22T21:10:34.767Z,28.33
2022-11-22T21:13:40.204Z,29.87
2022-11-22T21:16:43.764Z,28.00
2022-11-22T21:19:47.350Z,23.97
2022-11-22T21:22:54.849Z,28.23
2022-11-22T21:25:58.634Z,24.60
2022-11-22T21:29:05.647Z,20.00
2022-11-22T21:32:09.243Z,19.33
2022-11-22T21:35:13.886Z,18.87
2022-11-22T21:38:17.598Z,17.57
2022-11-22T21:41:40.350Z,19.47
2022-11-22T21:44:45.786Z,20.00
2022-11-22T21:47:49.962Z,17.13
2022-11-22T21:50:55.694Z,17.57
2022-11-22T21:54:00.111Z,14.87
2022-11-22T21:57:03.811Z,16.20
2022-11-22T22:00:12.050Z,12.77
2022-11-22T22:03:16.452Z,14.17
2022-11-22T22:06:20.112Z,15.23
2022-11-22T22:09:23.827Z,13.10
2022-11-22T22:12:27.521Z,11.67
2022-11-22T22:15:32.563Z,16.07
2022-11-22T22:18:38.811Z,15.80
2022-11-22T22:21:42.502Z,13.47
2022-11-22T22:24:46.345Z,9.70
2022-11-22T22:27:50.034Z,12.07
2022-11-22T22:31:03.131Z,11.77
2022-11-22T22:34:06.779Z,12.87
2022-11-22T22:37:10.348Z,13.37
2022-11-22T22:40:14.327Z,13.60
2022-11-22T22:43:17.934Z,16.93
2022-11-22T22:46:25.561Z,12.70
2022-11-22T22:49:30.564Z,12.83
2022-11-22T22:52:35.666Z,12.63
2022-11-22T22:55:39.585Z,11.10
2022-11-22T22:58:43.498Z,11.13
2022-11-22T23:01:49.059Z,9.37
2022-11-22T23:04:52.615Z,13.00
2022-11-22T23:07:56.427Z,12.73
2022-11-22T23:11:05.585Z,12.37
2022-11-22T23:14:09.255Z,11.13
2022-11-22T23:17:14.208Z,8.70
2022-11-22T23:20:18.154Z,10.13
2022-11-22T23:23:21.715Z,15.73
2022-11-22T23:26:25.300Z,15.57
2022-11-22T23:29:29.135Z,14.77
2022-11-22T23:32:34.379Z,10.23
2022-11-22T23:35:38.836Z,11.37
2022-11-22T23:38:43.974Z,10.87
2022-11-22T23:41:47.534Z,15.10
2022-11-22T23:44:51.067Z,12.47
2022-11-22T23:47:56.141Z,10.37
2022-11-22T23:51:04.870Z,13.27
2022-11-22T23:54:09.184Z,13.27
2022-11-22T23:57:12.777Z,10.60
